Amberson, Pennsylvania
Current Conditions -  °F | °C
As of 3:53 PM on Thursday 18 Dec 2014 (Local Time) from KHGR Reporting Station
Scattered Clouds Scattered Clouds  
Wind Chill: 27°   Ceiling: Unl
Heat Index: 35°   Visibility: 10mi
Dew Point: 21°   Wind: 10mph
Humidity: 57%   Direction: 310°NW
Pressure: 30.07"   Gusts: NA
Location:  40.17°N, 77.68°W
Report Text: KHGR 182053Z 31009KT 10SM SCT031 02/M06 A3007 RMK AO2 SLP200 T00171061 56014
Loading
Personal Weather Stations






























Interactive Weather Map New forecast layout! Learn more

10-Day Weather Forecast

Advertisements
Track Severe Weather on mobile